createdAt,value
2019-01-18T00:00:21.733Z,998.61
2019-01-18T00:01:21.723Z,998.58
2019-01-18T00:02:21.712Z,998.63
2019-01-18T00:03:21.699Z,998.64
2019-01-18T00:04:21.707Z,998.65
2019-01-18T00:05:29.458Z,998.63
2019-01-18T00:06:29.495Z,998.68
2019-01-18T00:07:21.659Z,998.67
2019-01-18T00:08:21.660Z,998.70
2019-01-18T00:09:21.632Z,998.72
2019-01-18T00:10:21.636Z,998.72
2019-01-18T00:11:21.618Z,998.74
2019-01-18T00:12:21.603Z,998.73
2019-01-18T00:13:29.523Z,998.75
2019-01-18T00:14:28.624Z,998.74
2019-01-18T00:15:21.584Z,998.76
2019-01-18T00:16:21.558Z,998.70
2019-01-18T00:17:30.586Z,998.70
2019-01-18T00:18:29.125Z,998.74
2019-01-18T00:19:21.530Z,998.69
2019-01-18T00:20:21.530Z,998.75
2019-01-18T00:21:29.151Z,998.74
2019-01-18T00:22:21.498Z,998.74
2019-01-18T00:23:21.490Z,998.75
2019-01-18T00:24:21.476Z,998.76
2019-01-18T00:25:21.480Z,998.80
2019-01-18T00:26:21.475Z,998.80
2019-01-18T00:27:21.442Z,998.84
2019-01-18T00:28:21.437Z,998.82
2019-01-18T00:29:21.433Z,998.89
2019-01-18T00:30:21.414Z,998.86
2019-01-18T00:31:21.397Z,998.94
2019-01-18T00:32:21.400Z,998.91
2019-01-18T00:33:21.399Z,998.92
2019-01-18T00:34:21.371Z,999.00
2019-01-18T00:35:21.369Z,999.00
2019-01-18T00:36:21.346Z,998.98
2019-01-18T00:37:21.342Z,998.99
2019-01-18T00:38:21.328Z,999.02
2019-01-18T00:39:21.321Z,999.02
2019-01-18T00:40:21.305Z,999.03
2019-01-18T00:41:21.294Z,999.05
2019-01-18T00:42:21.319Z,999.05
2019-01-18T00:43:21.275Z,999.11
2019-01-18T00:44:21.263Z,999.11
2019-01-18T00:45:21.251Z,999.12
2019-01-18T00:46:21.243Z,999.10
2019-01-18T00:47:21.227Z,999.12
2019-01-18T00:48:21.232Z,999.17
2019-01-18T00:49:21.211Z,999.08
2019-01-18T00:50:21.200Z,999.12
2019-01-18T00:51:21.190Z,999.18
2019-01-18T00:52:21.178Z,999.19
2019-01-18T00:53:21.173Z,999.25
2019-01-18T00:54:21.156Z,999.19
2019-01-18T00:55:21.140Z,999.22
2019-01-18T00:56:21.135Z,999.25
2019-01-18T00:57:21.119Z,999.25
2019-01-18T00:58:21.156Z,999.25
2019-01-18T00:59:21.099Z,999.24
2019-01-18T01:00:21.087Z,999.21
2019-01-18T01:01:21.077Z,999.21
2019-01-18T01:02:21.067Z,999.25
2019-01-18T01:03:21.057Z,999.22
2019-01-18T01:04:21.062Z,999.36
2019-01-18T01:05:21.047Z,999.37
2019-01-18T01:06:21.028Z,999.36
2019-01-18T01:07:21.017Z,999.41
2019-01-18T01:08:21.001Z,999.36
2019-01-18T01:09:20.989Z,999.38
2019-01-18T01:10:20.988Z,999.42
2019-01-18T01:11:20.971Z,999.44
2019-01-18T01:12:20.963Z,999.47
2019-01-18T01:13:20.952Z,999.48
2019-01-18T01:14:20.937Z,999.51
2019-01-18T01:15:20.938Z,999.53
2019-01-18T01:16:20.921Z,999.56
2019-01-18T01:17:20.911Z,999.55
2019-01-18T01:18:20.900Z,999.63
2019-01-18T01:19:20.884Z,999.64
2019-01-18T01:20:20.912Z,999.66
2019-01-18T01:21:20.863Z,999.68
2019-01-18T01:22:20.857Z,999.65
2019-01-18T01:23:20.847Z,999.69
2019-01-18T01:24:20.829Z,999.71
2019-01-18T01:25:20.819Z,999.75
2019-01-18T01:26:20.864Z,999.73
2019-01-18T01:27:20.799Z,999.77
2019-01-18T01:28:20.789Z,999.79
2019-01-18T01:29:20.783Z,999.81
2019-01-18T01:30:20.772Z,999.85
2019-01-18T01:31:20.758Z,999.81
2019-01-18T01:32:20.755Z,999.87
2019-01-18T01:33:20.735Z,999.85
2019-01-18T01:34:20.727Z,999.92
2019-01-18T01:35:20.719Z,999.98
2019-01-18T01:36:20.708Z,999.90
2019-01-18T01:37:20.737Z,999.92
2019-01-18T01:38:20.682Z,1000.00
2019-01-18T01:39:20.675Z,1000.03
2019-01-18T01:40:20.664Z,1000.08
2019-01-18T01:41:20.658Z,1000.12
2019-01-18T01:42:20.639Z,1000.21
2019-01-18T01:43:20.639Z,1000.30
2019-01-18T01:44:20.616Z,1000.30
2019-01-18T01:45:20.606Z,1000.39
2019-01-18T01:46:20.600Z,1000.42
2019-01-18T01:47:20.593Z,1000.45
2019-01-18T01:48:20.583Z,1000.49
2019-01-18T01:49:20.570Z,1000.56
2019-01-18T01:50:20.558Z,1000.56
2019-01-18T01:51:20.543Z,1000.65
2019-01-18T01:52:20.533Z,1000.69
2019-01-18T01:53:20.530Z,1000.71
2019-01-18T01:54:20.528Z,1000.76
2019-01-18T01:55:20.503Z,1000.82
2019-01-18T01:56:20.492Z,1000.90
2019-01-18T01:57:20.484Z,1000.95
2019-01-18T01:58:20.481Z,1000.98
2019-01-18T01:59:20.462Z,1001.02
2019-01-18T02:00:20.485Z,1001.02
2019-01-18T02:01:20.438Z,1000.98
2019-01-18T02:02:20.427Z,1001.03
2019-01-18T02:03:20.418Z,1001.13
2019-01-18T02:04:20.405Z,1001.14
2019-01-18T02:05:20.393Z,1001.16
2019-01-18T02:06:20.398Z,1001.21
2019-01-18T02:07:20.377Z,1001.28
2019-01-18T02:08:20.367Z,1001.26
2019-01-18T02:09:20.370Z,1001.28
2019-01-18T02:10:20.345Z,1001.30
2019-01-18T02:11:20.366Z,1001.36
2019-01-18T02:12:20.325Z,1001.36
2019-01-18T02:13:20.318Z,1001.39
2019-01-18T02:14:20.303Z,1001.41
2019-01-18T02:15:20.295Z,1001.51
2019-01-18T02:16:20.278Z,1001.54
2019-01-18T02:17:20.279Z,1001.57
2019-01-18T02:18:20.264Z,1001.60
2019-01-18T02:19:20.252Z,1001.65
2019-01-18T02:20:20.236Z,1001.62
2019-01-18T02:21:20.240Z,1001.68
2019-01-18T02:22:20.215Z,1001.68
2019-01-18T02:23:20.210Z,1001.70
2019-01-18T02:24:20.194Z,1001.81
2019-01-18T02:25:20.184Z,1001.85
2019-01-18T02:26:20.182Z,1001.83
2019-01-18T02:27:20.163Z,1001.87
2019-01-18T02:28:20.161Z,1001.92
2019-01-18T02:29:20.147Z,1001.89
2019-01-18T02:30:20.137Z,1001.86
2019-01-18T02:31:20.134Z,1001.88
2019-01-18T02:32:20.114Z,1001.93
2019-01-18T02:33:20.110Z,1001.98
2019-01-18T02:34:20.112Z,1001.98
2019-01-18T02:35:20.082Z,1002.03
2019-01-18T02:36:20.067Z,1002.07
2019-01-18T02:37:20.063Z,1002.08
2019-01-18T02:38:20.051Z,1002.13
2019-01-18T02:39:20.040Z,1002.11
2019-01-18T02:40:20.037Z,1002.15
2019-01-18T02:41:20.019Z,1002.22
2019-01-18T02:42:20.008Z,1002.21
2019-01-18T02:43:19.998Z,1002.24
2019-01-18T02:44:19.986Z,1002.27
2019-01-18T02:45:19.976Z,1002.28
2019-01-18T02:46:19.978Z,1002.28
2019-01-18T02:47:19.950Z,1002.32
2019-01-18T02:48:19.950Z,1002.31
2019-01-18T02:49:19.930Z,1002.32
2019-01-18T02:50:19.917Z,1002.37
2019-01-18T02:51:19.916Z,1002.40
2019-01-18T02:52:19.902Z,1002.40
2019-01-18T02:53:19.903Z,1002.52
2019-01-18T02:54:19.879Z,1002.50
2019-01-18T02:55:19.869Z,1002.49
2019-01-18T02:56:19.868Z,1002.46
2019-01-18T02:57:19.859Z,1002.53
2019-01-18T02:58:19.838Z,1002.53
2019-01-18T02:59:19.829Z,1002.52
2019-01-18T03:00:19.813Z,1002.59
2019-01-18T03:01:19.817Z,1002.63
2019-01-18T03:02:19.790Z,1002.67
2019-01-18T03:03:19.779Z,1002.69
2019-01-18T03:04:19.774Z,1002.73
2019-01-18T03:05:19.779Z,1002.67
2019-01-18T03:06:19.754Z,1002.72
2019-01-18T03:07:19.743Z,1002.78
2019-01-18T03:08:19.735Z,1002.78
2019-01-18T03:09:19.717Z,1002.78
2019-01-18T03:10:19.713Z,1002.89
2019-01-18T03:11:19.732Z,1002.86
2019-01-18T03:12:19.691Z,1002.90
2019-01-18T03:13:19.676Z,1002.99
2019-01-18T03:14:19.668Z,1002.98
2019-01-18T03:15:19.653Z,1003.06
2019-01-18T03:16:19.652Z,1003.09
2019-01-18T03:17:19.662Z,1003.10
2019-01-18T03:18:19.629Z,1003.10
2019-01-18T03:19:19.616Z,1003.19
2019-01-18T03:20:19.607Z,1003.20
2019-01-18T03:21:19.595Z,1003.20
2019-01-18T03:22:19.586Z,1003.23
2019-01-18T03:23:19.577Z,1003.23
2019-01-18T03:24:19.570Z,1003.26
2019-01-18T03:25:19.547Z,1003.27
2019-01-18T03:26:19.542Z,1003.31
2019-01-18T03:27:19.535Z,1003.30
2019-01-18T03:28:19.571Z,1003.30
2019-01-18T03:29:19.505Z,1003.38
2019-01-18T03:30:20.451Z,1003.34
2019-01-18T03:31:19.487Z,1003.39
2019-01-18T03:32:19.481Z,1003.38
2019-01-18T03:33:19.500Z,1003.42
2019-01-18T03:34:19.486Z,1003.42
2019-01-18T03:35:19.447Z,1003.41
2019-01-18T03:36:19.431Z,1003.50
2019-01-18T03:37:19.427Z,1003.58
2019-01-18T03:38:19.409Z,1003.55
2019-01-18T03:39:19.405Z,1003.54
2019-01-18T03:40:19.410Z,1003.56
2019-01-18T03:41:19.379Z,1003.56
2019-01-18T03:42:19.366Z,1003.59
2019-01-18T03:43:19.355Z,1003.64
2019-01-18T03:44:19.356Z,1003.69
2019-01-18T03:45:19.349Z,1003.77
2019-01-18T03:46:19.325Z,1003.76
2019-01-18T03:47:19.314Z,1003.82
2019-01-18T03:48:19.309Z,1003.84
2019-01-18T03:49:19.300Z,1003.86
2019-01-18T03:50:19.289Z,1003.88
2019-01-18T03:51:19.273Z,1003.90
2019-01-18T03:52:19.261Z,1003.93
2019-01-18T03:53:19.249Z,1003.96
2019-01-18T03:54:19.259Z,1003.91
2019-01-18T03:55:19.249Z,1003.97
2019-01-18T03:56:19.221Z,1003.94
2019-01-18T03:57:19.211Z,1003.99
2019-01-18T03:58:19.210Z,1003.97
2019-01-18T03:59:19.196Z,1003.96
2019-01-18T04:00:25.856Z,1003.95
2019-01-18T04:01:20.170Z,1004.00
2019-01-18T04:02:19.163Z,1004.02
2019-01-18T04:03:19.153Z,1004.10
2019-01-18T04:04:19.131Z,1004.14
2019-01-18T04:05:19.121Z,1004.14
2019-01-18T04:06:19.133Z,1004.16
2019-01-18T04:07:19.101Z,1004.18
2019-01-18T04:08:19.089Z,1004.20
2019-01-18T04:09:19.091Z,1004.20
2019-01-18T04:10:19.068Z,1004.25
2019-01-18T04:11:19.100Z,1004.25
2019-01-18T04:12:19.050Z,1004.29
2019-01-18T04:13:19.036Z,1004.35
2019-01-18T04:14:19.032Z,1004.33
2019-01-18T04:15:19.022Z,1004.35
2019-01-18T04:16:19.012Z,1004.38
2019-01-18T04:17:19.010Z,1004.37
2019-01-18T04:18:19.004Z,1004.51
2019-01-18T04:19:24.589Z,1004.48
2019-01-18T04:20:18.999Z,1004.51
2019-01-18T04:21:18.958Z,1004.52
2019-01-18T04:22:18.945Z,1004.48
2019-01-18T04:23:18.942Z,1004.53
2019-01-18T04:24:18.922Z,1004.54
2019-01-18T04:25:18.940Z,1004.58
2019-01-18T04:26:18.905Z,1004.59
2019-01-18T04:27:18.911Z,1004.59
2019-01-18T04:28:18.910Z,1004.64
2019-01-18T04:29:18.863Z,1004.66
2019-01-18T04:30:18.856Z,1004.75
2019-01-18T04:31:18.843Z,1004.71
2019-01-18T04:32:18.837Z,1004.71
2019-01-18T04:33:18.829Z,1004.78
2019-01-18T04:34:18.826Z,1004.78
2019-01-18T04:35:18.801Z,1004.80
2019-01-18T04:36:18.795Z,1004.87
2019-01-18T04:37:18.821Z,1004.84
2019-01-18T04:38:18.771Z,1004.91
2019-01-18T04:39:18.767Z,1004.90
2019-01-18T04:40:18.763Z,1004.86
2019-01-18T04:41:18.740Z,1004.92
2019-01-18T04:42:18.733Z,1004.94
2019-01-18T04:43:18.737Z,1004.94
2019-01-18T04:44:18.710Z,1004.97
2019-01-18T04:45:18.697Z,1005.00
2019-01-18T04:46:18.685Z,1005.02
2019-01-18T04:47:18.679Z,1005.02
2019-01-18T04:48:18.685Z,1005.03
2019-01-18T04:49:18.652Z,1005.03
2019-01-18T04:50:18.648Z,1005.08
2019-01-18T04:51:18.636Z,1005.06
2019-01-18T04:52:18.629Z,1005.03
2019-01-18T04:53:18.624Z,1005.05
2019-01-18T04:54:18.615Z,1005.12
2019-01-18T04:55:18.595Z,1005.11
2019-01-18T04:56:18.581Z,1005.13
2019-01-18T04:57:18.571Z,1005.15
2019-01-18T04:58:18.566Z,1005.14
2019-01-18T04:59:18.585Z,1005.14
2019-01-18T05:00:18.536Z,1005.15
2019-01-18T05:01:18.530Z,1005.17
2019-01-18T05:02:18.516Z,1005.20
2019-01-18T05:03:18.510Z,1005.18
2019-01-18T05:04:18.495Z,1005.14
2019-01-18T05:05:18.497Z,1005.23
2019-01-18T05:06:26.185Z,1005.23
2019-01-18T05:07:18.471Z,1005.24
2019-01-18T05:08:18.465Z,1005.23
2019-01-18T05:09:18.444Z,1005.32
2019-01-18T05:10:18.434Z,1005.35
2019-01-18T05:11:18.425Z,1005.41
2019-01-18T05:12:18.415Z,1005.40
2019-01-18T05:13:18.430Z,1005.45
2019-01-18T05:14:18.388Z,1005.49
2019-01-18T05:15:18.379Z,1005.54
2019-01-18T05:16:18.367Z,1005.60
2019-01-18T05:17:18.361Z,1005.62
2019-01-18T05:18:18.354Z,1005.64
2019-01-18T05:19:18.370Z,1005.66
2019-01-18T05:20:18.330Z,1005.63
2019-01-18T05:21:18.329Z,1005.69
2019-01-18T05:22:18.309Z,1005.73
2019-01-18T05:23:18.293Z,1005.77
2019-01-18T05:24:18.282Z,1005.77
2019-01-18T05:25:18.286Z,1005.79
2019-01-18T05:26:18.261Z,1005.78
2019-01-18T05:27:18.255Z,1005.81
2019-01-18T05:28:18.242Z,1005.81
2019-01-18T05:29:18.234Z,1005.84
2019-01-18T05:30:18.231Z,1005.86
2019-01-18T05:31:18.217Z,1005.90
2019-01-18T05:32:18.203Z,1005.94
2019-01-18T05:33:18.202Z,1005.94
2019-01-18T05:34:18.181Z,1005.96
2019-01-18T05:35:18.170Z,1005.95
2019-01-18T05:36:18.161Z,1006.01
2019-01-18T05:37:18.145Z,1006.08
2019-01-18T05:38:18.149Z,1006.07
2019-01-18T05:39:18.130Z,1006.08
2019-01-18T05:40:18.122Z,1006.11
2019-01-18T05:41:18.110Z,1006.18
2019-01-18T05:42:18.099Z,1006.18
2019-01-18T05:43:18.081Z,1006.26
2019-01-18T05:44:18.112Z,1006.27
2019-01-18T05:45:18.062Z,1006.28
2019-01-18T05:46:18.058Z,1006.38
2019-01-18T05:47:18.039Z,1006.36
2019-01-18T05:48:18.031Z,1006.40
2019-01-18T05:49:18.026Z,1006.44
2019-01-18T05:50:18.020Z,1006.45
2019-01-18T05:51:18.000Z,1006.48
2019-01-18T05:52:17.996Z,1006.51
2019-01-18T05:53:17.974Z,1006.49
2019-01-18T05:54:18.000Z,1006.54
2019-01-18T05:55:17.969Z,1006.57
2019-01-18T05:56:17.942Z,1006.61
2019-01-18T05:57:17.938Z,1006.63
2019-01-18T05:58:17.929Z,1006.64
2019-01-18T05:59:17.915Z,1006.72
2019-01-18T06:00:17.935Z,1006.76
2019-01-18T06:01:17.895Z,1006.77
2019-01-18T06:02:17.887Z,1006.79
2019-01-18T06:03:17.871Z,1006.79
2019-01-18T06:04:17.865Z,1006.75
2019-01-18T06:05:17.845Z,1006.87
2019-01-18T06:06:17.845Z,1006.84
2019-01-18T06:07:17.827Z,1006.90
2019-01-18T06:08:17.820Z,1006.92
2019-01-18T06:09:17.808Z,1006.98
2019-01-18T06:10:17.800Z,1006.98
2019-01-18T06:11:17.795Z,1007.03
2019-01-18T06:12:17.776Z,1006.98
2019-01-18T06:13:17.760Z,1007.00
2019-01-18T06:14:17.751Z,1007.09
2019-01-18T06:15:17.745Z,1007.08
2019-01-18T06:16:17.737Z,1007.04
2019-01-18T06:17:17.756Z,1007.11
2019-01-18T06:18:17.710Z,1007.12
2019-01-18T06:19:17.708Z,1007.20
2019-01-18T06:20:17.689Z,1007.19
2019-01-18T06:21:17.685Z,1007.18
2019-01-18T06:22:17.677Z,1007.24
2019-01-18T06:23:17.669Z,1007.22
2019-01-18T06:24:17.647Z,1007.27
2019-01-18T06:25:17.651Z,1007.26
2019-01-18T06:26:17.622Z,1007.33
2019-01-18T06:27:17.624Z,1007.33
2019-01-18T06:28:17.599Z,1007.33
2019-01-18T06:29:17.599Z,1007.35
2019-01-18T06:30:17.587Z,1007.36
2019-01-18T06:31:17.575Z,1007.40
2019-01-18T06:32:17.581Z,1007.46
2019-01-18T06:33:17.553Z,1007.44
2019-01-18T06:34:17.536Z,1007.49
2019-01-18T06:35:17.532Z,1007.51
2019-01-18T06:36:17.524Z,1007.55
2019-01-18T06:37:17.510Z,1007.55
2019-01-18T06:38:17.528Z,1007.59
2019-01-18T06:39:17.491Z,1007.60
2019-01-18T06:40:17.473Z,1007.61
2019-01-18T06:41:17.462Z,1007.60
2019-01-18T06:42:17.453Z,1007.67
2019-01-18T06:43:17.446Z,1007.71
2019-01-18T06:44:17.491Z,1007.75
2019-01-18T06:45:17.471Z,1007.72
2019-01-18T06:46:17.415Z,1007.79
2019-01-18T06:47:17.405Z,1007.84
2019-01-18T06:48:17.388Z,1007.81
2019-01-18T06:49:17.382Z,1007.87
2019-01-18T06:50:17.371Z,1007.91
2019-01-18T06:51:17.381Z,1007.93
2019-01-18T06:52:17.348Z,1008.00
2019-01-18T06:53:17.340Z,1008.05
2019-01-18T06:54:17.325Z,1008.03
2019-01-18T06:55:17.319Z,1008.08
2019-01-18T06:56:17.310Z,1008.09
2019-01-18T06:57:17.314Z,1008.17
2019-01-18T06:58:17.287Z,1008.21
2019-01-18T06:59:17.277Z,1008.23
2019-01-18T07:00:17.270Z,1008.25
2019-01-18T07:01:17.291Z,1008.27
2019-01-18T07:02:17.243Z,1008.32
2019-01-18T07:03:17.237Z,1008.35
2019-01-18T07:04:17.218Z,1008.37
2019-01-18T07:05:17.209Z,1008.37
2019-01-18T07:06:17.204Z,1008.37
2019-01-18T07:07:17.208Z,1008.41
2019-01-18T07:08:17.182Z,1008.47
2019-01-18T07:09:17.176Z,1008.48
2019-01-18T07:10:20.925Z,1008.48
2019-01-18T07:11:17.145Z,1008.51
2019-01-18T07:12:17.150Z,1008.58
2019-01-18T07:13:17.130Z,1008.51
2019-01-18T07:14:17.125Z,1008.54
2019-01-18T07:15:17.111Z,1008.58
2019-01-18T07:16:17.098Z,1008.62
2019-01-18T07:17:17.086Z,1008.68
2019-01-18T07:18:17.083Z,1008.65
2019-01-18T07:19:17.070Z,1008.69
2019-01-18T07:20:17.062Z,1008.68
2019-01-18T07:21:17.047Z,1008.72
2019-01-18T07:22:17.034Z,1008.74
2019-01-18T07:23:17.038Z,1008.76
2019-01-18T07:24:17.060Z,1008.83
2019-01-18T07:25:16.996Z,1008.83
2019-01-18T07:26:16.993Z,1008.88
2019-01-18T07:27:16.975Z,1008.91
2019-01-18T07:28:16.973Z,1008.88
2019-01-18T07:29:16.960Z,1008.93
2019-01-18T07:30:16.959Z,1008.97
2019-01-18T07:31:16.939Z,1008.99
2019-01-18T07:32:16.927Z,1009.01
2019-01-18T07:33:16.917Z,1009.03
2019-01-18T07:34:16.914Z,1009.03
2019-01-18T07:35:16.938Z,1009.04
2019-01-18T07:36:16.890Z,1009.08
2019-01-18T07:37:16.875Z,1009.15
2019-01-18T07:38:16.881Z,1009.19
2019-01-18T07:39:22.332Z,1009.18
2019-01-18T07:40:17.906Z,1009.26
2019-01-18T07:41:16.836Z,1009.27
2019-01-18T07:42:16.825Z,1009.29
2019-01-18T07:43:16.813Z,1009.33
2019-01-18T07:44:16.803Z,1009.35
2019-01-18T07:45:16.793Z,1009.36
2019-01-18T07:46:16.825Z,1009.42
2019-01-18T07:47:16.771Z,1009.46
2019-01-18T07:48:16.763Z,1009.51
2019-01-18T07:49:16.744Z,1009.46
2019-01-18T07:50:20.105Z,1009.54
2019-01-18T07:51:16.728Z,1009.50
2019-01-18T07:52:16.728Z,1009.58
2019-01-18T07:53:16.708Z,1009.57
2019-01-18T07:54:16.720Z,1009.56
2019-01-18T07:55:16.686Z,1009.59
2019-01-18T07:56:16.693Z,1009.60
2019-01-18T07:57:16.663Z,1009.66
2019-01-18T07:58:16.655Z,1009.67
2019-01-18T07:59:16.649Z,1009.71
2019-01-18T08:00:16.633Z,1009.74
2019-01-18T08:01:21.994Z,1009.74
2019-01-18T08:02:17.619Z,1009.77
2019-01-18T08:03:16.600Z,1009.80
2019-01-18T08:04:16.585Z,1009.86
2019-01-18T08:05:16.573Z,1009.89
2019-01-18T08:06:16.582Z,1009.92
2019-01-18T08:07:16.569Z,1009.92
2019-01-18T08:08:16.542Z,1009.93
2019-01-18T08:09:16.531Z,1010.01
2019-01-18T08:10:16.527Z,1010.02
2019-01-18T08:11:16.521Z,1010.06
2019-01-18T08:12:16.523Z,1010.05
2019-01-18T08:13:16.501Z,1010.09
2019-01-18T08:14:16.495Z,1010.09
2019-01-18T08:15:16.473Z,1010.11
2019-01-18T08:16:16.457Z,1010.16
2019-01-18T08:17:16.458Z,1010.10
2019-01-18T08:18:16.451Z,1010.11
2019-01-18T08:19:16.439Z,1010.18
2019-01-18T08:20:16.416Z,1010.22
2019-01-18T08:21:16.405Z,1010.25
2019-01-18T08:22:16.394Z,1010.30
2019-01-18T08:23:16.424Z,1010.32
2019-01-18T08:24:16.374Z,1010.31
2019-01-18T08:25:16.364Z,1010.26
2019-01-18T08:26:16.352Z,1010.37
2019-01-18T08:27:16.352Z,1010.35
2019-01-18T08:28:16.336Z,1010.38
2019-01-18T08:29:16.361Z,1010.42
2019-01-18T08:30:16.309Z,1010.47
2019-01-18T08:31:16.299Z,1010.45
2019-01-18T08:32:16.293Z,1010.48
2019-01-18T08:33:16.290Z,1010.48
2019-01-18T08:34:16.275Z,1010.53
2019-01-18T08:35:16.272Z,1010.54
2019-01-18T08:36:16.244Z,1010.57
2019-01-18T08:37:16.236Z,1010.60
2019-01-18T08:38:16.231Z,1010.56
2019-01-18T08:39:16.213Z,1010.63
2019-01-18T08:40:16.214Z,1010.65
2019-01-18T08:41:16.198Z,1010.67
2019-01-18T08:42:16.188Z,1010.66
2019-01-18T08:43:16.188Z,1010.69
2019-01-18T08:44:16.164Z,1010.64
2019-01-18T08:45:16.235Z,1010.69
2019-01-18T08:46:16.144Z,1010.67
2019-01-18T08:47:16.130Z,1010.67
2019-01-18T08:48:16.124Z,1010.71
2019-01-18T08:49:16.111Z,1010.69
2019-01-18T08:50:16.099Z,1010.71
2019-01-18T08:51:16.101Z,1010.67
2019-01-18T08:52:16.077Z,1010.68
2019-01-18T08:53:16.071Z,1010.69
2019-01-18T08:54:16.060Z,1010.75
2019-01-18T08:55:16.046Z,1010.70
2019-01-18T08:56:16.736Z,1010.72
2019-01-18T08:57:16.026Z,1010.73
2019-01-18T08:58:16.018Z,1010.76
2019-01-18T08:59:16.000Z,1010.78
2019-01-18T09:00:15.994Z,1010.82
2019-01-18T09:01:15.981Z,1010.82
2019-01-18T09:02:15.981Z,1010.83
2019-01-18T09:03:15.961Z,1010.81
2019-01-18T09:04:15.960Z,1010.81
2019-01-18T09:05:15.944Z,1010.91
2019-01-18T09:06:15.928Z,1010.88
2019-01-18T09:07:15.933Z,1010.93
2019-01-18T09:08:15.902Z,1010.88
2019-01-18T09:09:15.896Z,1010.86
2019-01-18T09:10:15.889Z,1010.89
2019-01-18T09:11:15.870Z,1010.95
2019-01-18T09:12:15.862Z,1010.95
2019-01-18T09:13:15.874Z,1010.95
2019-01-18T09:14:19.454Z,1010.93
2019-01-18T09:15:15.834Z,1010.95
2019-01-18T09:16:15.830Z,1010.94
2019-01-18T09:17:15.809Z,1010.97
2019-01-18T09:18:15.802Z,1011.00
2019-01-18T09:19:15.791Z,1011.04
2019-01-18T09:20:15.810Z,1011.03
2019-01-18T09:21:15.766Z,1011.07
2019-01-18T09:22:15.755Z,1011.09
2019-01-18T09:23:15.760Z,1011.09
2019-01-18T09:24:15.733Z,1011.13
2019-01-18T09:25:15.723Z,1011.14
2019-01-18T09:26:15.718Z,1011.12
2019-01-18T09:27:15.697Z,1011.07
2019-01-18T09:28:15.694Z,1011.21
2019-01-18T09:29:15.683Z,1011.19
2019-01-18T09:30:15.670Z,1011.14
2019-01-18T09:31:15.664Z,1011.15
2019-01-18T09:32:15.649Z,1011.16
2019-01-18T09:33:15.645Z,1011.19
2019-01-18T09:34:15.685Z,1011.19
2019-01-18T09:35:15.623Z,1011.22
2019-01-18T09:36:15.605Z,1011.27
2019-01-18T09:37:15.592Z,1011.23
2019-01-18T09:38:17.910Z,1011.30
2019-01-18T09:39:15.578Z,1011.27
2019-01-18T09:40:15.619Z,1011.27
2019-01-18T09:41:15.556Z,1011.26
2019-01-18T09:42:15.539Z,1011.32
2019-01-18T09:43:15.524Z,1011.37
2019-01-18T09:44:15.512Z,1011.35
2019-01-18T09:45:15.503Z,1011.39
2019-01-18T09:46:15.505Z,1011.38
2019-01-18T09:47:15.486Z,1011.37
2019-01-18T09:48:15.469Z,1011.48
2019-01-18T09:49:15.495Z,1011.44
2019-01-18T09:50:15.453Z,1011.44
2019-01-18T09:51:15.448Z,1011.47
2019-01-18T09:52:15.440Z,1011.51
2019-01-18T09:53:15.420Z,1011.42
2019-01-18T09:54:15.409Z,1011.41
2019-01-18T09:55:15.393Z,1011.49
2019-01-18T09:56:15.438Z,1011.48
2019-01-18T09:57:15.373Z,1011.51
2019-01-18T09:58:15.367Z,1011.42
2019-01-18T09:59:15.354Z,1011.47
2019-01-18T10:00:15.346Z,1011.48
2019-01-18T10:01:15.332Z,1011.46
2019-01-18T10:02:15.328Z,1011.42
2019-01-18T10:03:15.331Z,1011.52
2019-01-18T10:04:15.304Z,1011.52
2019-01-18T10:05:15.292Z,1011.49
2019-01-18T10:06:15.274Z,1011.55
2019-01-18T10:07:15.264Z,1011.44
2019-01-18T10:08:15.268Z,1011.48
2019-01-18T10:09:15.249Z,1011.46
2019-01-18T10:10:15.236Z,1011.45
2019-01-18T10:11:15.221Z,1011.46
2019-01-18T10:12:15.254Z,1011.53
2019-01-18T10:13:15.201Z,1011.55
2019-01-18T10:14:15.198Z,1011.51
2019-01-18T10:15:15.190Z,1011.46
2019-01-18T10:16:15.166Z,1011.51
2019-01-18T10:17:15.158Z,1011.50
2019-01-18T10:18:15.155Z,1011.54
2019-01-18T10:19:15.141Z,1011.57
2019-01-18T10:20:15.131Z,1011.51
2019-01-18T10:21:15.115Z,1011.52
2019-01-18T10:22:15.108Z,1011.58
2019-01-18T10:23:15.106Z,1011.55
2019-01-18T10:24:15.080Z,1011.53
2019-01-18T10:25:15.075Z,1011.55
2019-01-18T10:26:15.068Z,1011.56
2019-01-18T10:27:15.053Z,1011.56
2019-01-18T10:28:15.071Z,1011.55
2019-01-18T10:29:15.033Z,1011.55
2019-01-18T10:30:15.021Z,1011.57
2019-01-18T10:31:15.005Z,1011.64
2019-01-18T10:32:14.994Z,1011.61
2019-01-18T10:33:14.999Z,1011.62
2019-01-18T10:34:14.979Z,1011.64
2019-01-18T10:35:14.970Z,1011.65
2019-01-18T10:36:14.965Z,1011.63
2019-01-18T10:37:14.944Z,1011.68
2019-01-18T10:38:14.934Z,1011.65
2019-01-18T10:39:14.920Z,1011.67
2019-01-18T10:40:14.912Z,1011.64
2019-01-18T10:41:14.906Z,1011.67
2019-01-18T10:42:14.887Z,1011.67
2019-01-18T10:43:14.882Z,1011.72
2019-01-18T10:44:14.871Z,1011.68
2019-01-18T10:45:14.871Z,1011.73
2019-01-18T10:46:14.863Z,1011.74
2019-01-18T10:47:14.832Z,1011.74
2019-01-18T10:48:14.823Z,1011.78
2019-01-18T10:49:14.816Z,1011.72
2019-01-18T10:50:14.806Z,1011.79
2019-01-18T10:51:14.791Z,1011.81
2019-01-18T10:52:14.817Z,1011.82
2019-01-18T10:53:14.766Z,1011.84
2019-01-18T10:54:14.765Z,1011.87
2019-01-18T10:55:14.750Z,1011.89
2019-01-18T10:56:14.742Z,1011.88
2019-01-18T10:57:14.817Z,1011.92
2019-01-18T10:58:14.769Z,1011.93
2019-01-18T10:59:14.723Z,1011.98
2019-01-18T11:00:14.706Z,1011.98
2019-01-18T11:01:14.725Z,1011.98
2019-01-18T11:02:14.682Z,1011.97
2019-01-18T11:03:14.670Z,1012.00
2019-01-18T11:04:14.657Z,1012.03
2019-01-18T11:05:14.638Z,1012.05
2019-01-18T11:06:14.628Z,1012.07
2019-01-18T11:07:22.215Z,1012.04
2019-01-18T11:08:17.521Z,1012.02
2019-01-18T11:09:14.616Z,1012.02
2019-01-18T11:10:14.582Z,1012.04
2019-01-18T11:11:14.575Z,1012.02
2019-01-18T11:12:14.569Z,1012.04
2019-01-18T11:13:14.562Z,1012.03
2019-01-18T11:14:14.539Z,1012.07
2019-01-18T11:15:14.542Z,1012.09
2019-01-18T11:16:14.523Z,1012.12
2019-01-18T11:17:14.511Z,1012.06
2019-01-18T11:18:14.506Z,1012.11
2019-01-18T11:19:14.490Z,1012.13
2019-01-18T11:20:14.474Z,1012.10
2019-01-18T11:21:14.468Z,1012.09
2019-01-18T11:22:14.461Z,1012.08
2019-01-18T11:23:14.441Z,1012.09
2019-01-18T11:24:14.439Z,1012.09
2019-01-18T11:25:14.510Z,1012.15
2019-01-18T11:26:14.417Z,1012.13
2019-01-18T11:27:14.398Z,1012.13
2019-01-18T11:28:14.390Z,1012.11
2019-01-18T11:29:14.388Z,1012.14
2019-01-18T11:30:14.371Z,1012.09
2019-01-18T11:31:14.362Z,1012.14
2019-01-18T11:32:14.348Z,1012.18
2019-01-18T11:33:14.337Z,1012.18
2019-01-18T11:34:14.338Z,1012.13
2019-01-18T11:35:14.316Z,1012.16
2019-01-18T11:36:14.336Z,1012.17
2019-01-18T11:37:14.294Z,1012.20
2019-01-18T11:38:14.278Z,1012.19
2019-01-18T11:39:14.272Z,1012.15
2019-01-18T11:40:14.266Z,1012.13
2019-01-18T11:41:14.253Z,1012.15
2019-01-18T11:42:14.249Z,1012.13
2019-01-18T11:43:14.228Z,1012.13
2019-01-18T11:44:14.214Z,1012.08
2019-01-18T11:45:14.207Z,1012.08
2019-01-18T11:46:14.209Z,1012.06
2019-01-18T11:47:14.190Z,1012.16
2019-01-18T11:48:14.178Z,1012.12
2019-01-18T11:49:14.159Z,1012.13
2019-01-18T11:50:14.156Z,1012.15
2019-01-18T11:51:14.147Z,1012.16
2019-01-18T11:52:14.133Z,1012.19
2019-01-18T11:53:14.120Z,1012.17
2019-01-18T11:54:14.110Z,1012.29
2019-01-18T11:55:14.094Z,1012.26
2019-01-18T11:56:14.099Z,1012.27
2019-01-18T11:57:14.084Z,1012.28
2019-01-18T11:58:14.077Z,1012.26
2019-01-18T11:59:14.057Z,1012.28
2019-01-18T12:00:14.040Z,1012.24
2019-01-18T12:01:14.071Z,1012.29
2019-01-18T12:02:16.163Z,1012.31
2019-01-18T12:03:15.013Z,1012.32
2019-01-18T12:04:13.999Z,1012.31
2019-01-18T12:05:13.988Z,1012.34
2019-01-18T12:06:13.989Z,1012.31
2019-01-18T12:07:13.981Z,1012.35
2019-01-18T12:08:13.961Z,1012.35